Time;durP1;ratioP1;P1;durP2;ratioP2;P2;SDS_P1;SDS_P2;PMS_P1;PMS_P2;Temp;Humidity;BMP_temperature;BMP_pressure;BME280_temperature;BME280_humidity;BME280_pressure;Samples;Min_cycle;Max_cycle;Signal;HPM_P1;HPM_P2
2022/05/15 00:01:07;;;;;;;7.22;3.67;;;;;;;;;;5012534;28;20080;-77
2022/05/15 00:03:33;;;;;;;10.57;4.18;;;410.20;2355.20;;;;;;5013643;28;20057;-77
2022/05/15 00:06:03;;;;;;;5.63;3.40;;;410.10;2355.20;;;;;;5016484;28;20041;-78
2022/05/15 00:08:31;;;;;;;9.15;5.15;;;409.80;2355.20;;;;;;5013093;28;20034;-79
2022/05/15 00:10:58;;;;;;;10.07;4.78;;;409.90;2355.20;;;;;;5012111;28;20026;-79
2022/05/15 00:13:25;;;;;;;9.48;6.85;;;409.80;2355.20;;;;;;5009769;28;20022;-79
2022/05/15 00:15:51;;;;;;;9.35;4.85;;;409.70;2355.20;;;;;;5006777;28;20046;-79
2022/05/15 00:18:20;;;;;;;9.38;5.75;;;409.70;2355.20;;;;;;5007102;28;20026;-79
2022/05/15 00:20:46;;;;;;;9.57;5.97;;;409.70;2355.20;;;;;;5004418;28;20057;-80
2022/05/15 00:23:12;;;;;;;12.52;5.90;;;409.90;2355.20;;;;;;5005924;28;20496;-78
2022/05/15 00:25:39;;;;;;;7.78;4.88;;;409.70;2355.20;;;;;;4997351;28;20030;-79
2022/05/15 00:28:06;;;;;;;10.13;5.07;;;409.70;2355.20;;;;;;5012803;28;20077;-80
2022/05/15 00:30:32;;;;;;;7.30;4.65;;;409.70;2355.20;;;;;;5010265;28;20022;-79
2022/05/15 00:32:59;;;;;;;9.15;4.45;;;409.70;2355.20;;;;;;5011554;28;20022;-79
2022/05/15 00:35:25;;;;;;;14.13;5.20;;;409.80;2355.20;;;;;;4995362;28;20072;-79
2022/05/15 00:37:51;;;;;;;10.25;5.53;;;409.70;2355.20;;;;;;5011533;28;20018;-78
2022/05/15 00:40:19;;;;;;;12.23;4.20;;;409.70;2355.20;;;;;;5010721;28;20473;-79
2022/05/15 00:42:45;;;;;;;7.47;4.03;;;409.70;2355.20;;;;;;5012936;28;20457;-79
2022/05/15 00:45:12;;;;;;;13.45;4.68;;;409.70;2355.20;;;;;;5009694;28;20519;-79
2022/05/15 00:47:38;;;;;;;9.63;4.47;;;;;;;;;;5006347;28;20026;-78
2022/05/15 00:50:09;;;;;;;7.20;4.07;;;;;;;;;;5009308;28;20026;-78
2022/05/15 00:52:37;;;;;;;5.25;3.75;;;;;;;;;;5000939;28;20025;-78
2022/05/15 00:55:06;;;;;;;11.38;4.30;;;;;;;;;;5003356;28;20491;-78
2022/05/15 00:57:35;;;;;;;6.22;3.97;;;;;;;;;;4995036;28;20066;-78
2022/05/15 01:00:15;;;;;;;9.07;3.50;;;;;;;;;;4995071;28;20038;-78
2022/05/15 01:02:43;;;;;;;6.82;4.40;;;;;;;;;;4998898;28;20026;-78
2022/05/15 01:05:10;;;;;;;9.00;4.60;;;;;;;;;;5012318;28;20022;-78
2022/05/15 01:07:36;;;;;;;9.27;3.67;;;;;;;;;;5002441;28;20038;-78
2022/05/15 01:10:04;;;;;;;5.95;4.22;;;;;;;;;;5011181;28;20160;-79
2022/05/15 01:12:32;;;;;;;8.02;3.42;;;;;;;;;;4994570;28;20052;-78
2022/05/15 01:14:58;;;;;;;9.63;3.33;;;;;;;;;;5012542;28;20018;-79
2022/05/15 01:17:24;;;;;;;8.02;3.70;;;;;;;;;;5012024;28;20021;-79
2022/05/15 01:19:50;;;;;;;5.63;3.03;;;;;;;;;;5010893;28;20036;-78
2022/05/15 01:22:16;;;;;;;8.27;4.40;;;;;;;;;;4997040;28;20430;-79
2022/05/15 01:24:43;;;;;;;5.88;3.75;;;;;;;;;;5012801;28;20049;-79
2022/05/15 01:27:10;;;;;;;13.68;4.00;;;;;;;;;;5012414;28;20456;-79
2022/05/15 01:29:38;;;;;;;9.38;3.70;;;;;;;;;;5011275;28;20495;-79
2022/05/15 01:32:05;;;;;;;7.32;4.25;;;;;;;;;;5012753;28;20021;-79
2022/05/15 01:34:31;;;;;;;9.93;4.07;;;;;;;;;;5012643;28;20021;-77
2022/05/15 01:36:59;;;;;;;13.82;4.38;;;;;;;;;;5011389;28;20369;-79
2022/05/15 01:39:25;;;;;;;8.80;5.65;;;;;;;;;;5011265;28;20053;-80
2022/05/15 01:41:52;;;;;;;9.15;5.13;;;;;;;;;;5011425;28;20388;-80
2022/05/15 01:44:18;;;;;;;7.25;4.15;;;;;;;;;;5011386;28;20030;-80
2022/05/15 01:46:44;;;;;;;5.45;3.63;;;;;;;;;;5011496;28;20026;-80
2022/05/15 01:49:10;;;;;;;5.15;3.92;;;;;;;;;;5011262;28;20026;-79
2022/05/15 01:51:39;;;;;;;12.70;5.78;;;;;;;;;;5010863;28;20037;-77
2022/05/15 01:54:05;;;;;;;8.13;3.75;;;;;;;;;;5011113;28;20029;-80
2022/05/15 01:56:31;;;;;;;5.97;3.65;;;;;;;;;;5011360;28;20025;-81
2022/05/15 01:58:57;;;;;;;8.25;4.57;;;;;;;;;;5011486;28;20021;-81
2022/05/15 02:01:24;;;;;;;9.48;4.18;;;;;;;;;;5011560;28;20045;-81
2022/05/15 02:03:50;;;;;;;6.93;3.67;;;;;;;;;;5011706;28;20018;-81
2022/05/15 02:06:17;;;;;;;8.10;3.78;;;;;;;;;;5011277;28;20065;-81
2022/05/15 02:08:43;;;;;;;9.27;4.25;;;384.10;2329.60;;;;;;5014090;28;20025;-83
2022/05/15 02:11:09;;;;;;;6.57;4.25;;;384.00;2329.60;;;;;;5012845;28;20080;-82
2022/05/15 02:13:35;;;;;;;15.02;4.47;;;384.00;2329.60;;;;;;5011693;28;20424;-80
2022/05/15 02:16:01;;;;;;;7.07;3.85;;;384.00;2329.60;;;;;;5012713;28;20056;-81
2022/05/15 02:18:28;;;;;;;7.00;4.85;;;384.10;2329.60;;;;;;5011363;28;20457;-81
2022/05/15 02:20:54;;;;;;;5.47;3.90;;;384.00;2329.60;;;;;;5011282;28;20040;-78
2022/05/15 02:23:20;;;;;;;7.93;3.70;;;384.00;2329.60;;;;;;5012469;28;20109;-80
2022/05/15 02:25:46;;;;;;;12.18;4.50;;;384.00;2329.60;;;;;;5011016;28;20022;-81
2022/05/15 02:28:12;;;;;;;6.28;3.83;;;384.10;2329.60;;;;;;5011145;28;20037;-81
2022/05/15 02:30:38;;;;;;;7.35;4.13;;;384.00;2329.60;;;;;;5011180;28;20026;-81
2022/05/15 02:33:05;;;;;;;8.25;4.43;;;;;;;;;;5012251;28;20105;-81
2022/05/15 02:35:31;;;;;;;7.32;4.43;;;;;;;;;;5010949;28;20519;-81
2022/05/15 02:37:57;;;;;;;9.80;4.57;;;;;;;;;;5010789;28;20029;-79
2022/05/15 02:40:25;;;;;;;10.75;4.43;;;;;;;;;;5011620;28;20489;-79
2022/05/15 02:42:53;;;;;;;6.05;3.72;;;;;;;;;;5012279;28;20477;-79
2022/05/15 02:45:19;;;;;;;6.72;4.03;;;;;;;;;;5011964;28;20397;-79
2022/05/15 02:47:45;;;;;;;11.65;4.22;;;;;;;;;;5011935;28;20432;-80
2022/05/15 02:52:56;;;;;;;8.60;4.93;;;359.00;2329.60;;;;;;5011752;28;20033;-79
2022/05/15 02:55:23;;;;;;;6.03;4.35;;;;;;;;;;5010544;28;20022;-79
2022/05/15 02:57:50;;;;;;;6.38;4.22;;;;;;;;;;5011767;28;20049;-80
2022/05/15 03:00:17;;;;;;;5.28;3.67;;;;;;;;;;5011999;28;20037;-80
2022/05/15 03:02:43;;;;;;;5.63;3.90;;;;;;;;;;5011648;28;20102;-80
2022/05/15 03:05:10;;;;;;;11.20;5.22;;;;;;;;;;5015500;28;20037;-79
2022/05/15 03:07:37;;;;;;;8.85;5.72;;;;;;;;;;5014064;28;20448;-80
2022/05/15 03:10:04;;;;;;;7.75;4.53;;;;;;;;;;5014162;28;20409;-80
2022/05/15 03:12:30;;;;;;;4.70;3.38;;;;;;;;;;5017103;28;20064;-80
2022/05/15 03:14:56;;;;;;;10.60;4.55;;;;;;;;;;5014212;28;20477;-80
2022/05/15 03:17:22;;;;;;;13.35;4.82;;;;;;;;;;5013983;28;20125;-79
2022/05/15 03:19:48;;;;;;;6.55;4.25;;;;;;;;;;5015174;28;20033;-80
2022/05/15 03:22:14;;;;;;;8.43;3.92;;;;;;;;;;5015190;28;20381;-79
2022/05/15 03:24:40;;;;;;;10.77;3.88;;;;;;;;;;5014864;28;20018;-80
2022/05/15 03:27:07;;;;;;;6.63;3.47;;;;;;;;;;5014871;28;20022;-78
2022/05/15 03:29:33;;;;;;;6.32;4.95;;;;;;;;;;5013673;28;20066;-79
2022/05/15 03:31:59;;;;;;;6.60;4.07;;;;;;;;;;5013730;28;20018;-78
2022/05/15 03:34:25;;;;;;;5.32;3.25;;;;;;;;;;5014931;28;20014;-78
2022/05/15 03:36:52;;;;;;;4.50;3.08;;;;;;;;;;5013586;28;20076;-78
2022/05/15 03:39:22;;;;;;;7.50;4.13;;;;;;;;;;5013497;28;20053;-78
2022/05/15 03:41:48;;;;;;;6.40;4.28;;;;;;;;;;5013474;28;20152;-78
2022/05/15 03:44:15;;;;;;;7.00;4.93;;;;;;;;;;5013446;28;20096;-78
2022/05/15 03:46:42;;;;;;;8.65;4.50;;;;;;;;;;5014720;28;20029;-78
2022/05/15 03:49:08;;;;;;;6.32;4.20;;;;;;;;;;5013351;28;20505;-79
2022/05/15 03:51:34;;;;;;;7.97;3.60;;;;;;;;;;5014801;28;20026;-80
2022/05/15 03:54:01;;;;;;;6.82;4.60;;;;;;;;;;5013472;28;20033;-79
2022/05/15 03:59:13;;;;;;;10.60;4.68;;;;;;;;;;5014253;28;20040;-79
2022/05/15 04:01:39;;;;;;;6.93;3.78;;;;;;;;;;5014295;28;20030;-79
2022/05/15 04:04:05;;;;;;;8.65;3.35;;;;;;;;;;5013075;28;20018;-79
2022/05/15 04:06:31;;;;;;;9.23;4.75;;;;;;;;;;5013995;28;20050;-80
2022/05/15 04:08:57;;;;;;;7.75;4.47;;;;;;;;;;5014575;28;20021;-80
2022/05/15 04:11:23;;;;;;;7.60;4.90;;;;;;;;;;5012895;28;20396;-80
2022/05/15 04:13:49;;;;;;;9.95;5.18;;;;;;;;;;5014949;28;20022;-79
2022/05/15 04:16:16;;;;;;;7.97;5.07;;;;;;;;;;5013227;28;20022;-80
2022/05/15 04:18:42;;;;;;;9.13;5.80;;;;;;;;;;5012905;28;20040;-80
2022/05/15 04:21:08;;;;;;;7.55;5.30;;;;;;;;;;5014106;28;20045;-79
2022/05/15 04:23:35;;;;;;;10.95;5.18;;;;;;;;;;5012703;28;20029;-79
2022/05/15 04:26:01;;;;;;;10.30;5.03;;;;;;;;;;5012667;28;20113;-79
2022/05/15 04:28:27;;;;;;;5.45;4.13;;;;;;;;;;5014229;28;20022;-80
2022/05/15 04:30:53;;;;;;;14.60;4.85;;;;;;;;;;5013903;28;20025;-80
2022/05/15 04:33:19;;;;;;;10.40;6.32;;;;;;;;;;5012761;28;20022;-80
2022/05/15 04:35:45;;;;;;;11.98;5.50;;;;;;;;;;5012648;28;20025;-80
2022/05/15 04:38:11;;;;;;;6.88;5.22;;;;;;;;;;5013855;28;20576;-81
2022/05/15 04:40:37;;;;;;;7.75;4.63;;;;;;;;;;5013872;28;20037;-81
2022/05/15 04:43:04;;;;;;;8.25;4.00;;;;;;;;;;5012507;28;20018;-80
2022/05/15 04:45:30;;;;;;;9.95;5.47;;;;;;;;;;5013071;28;20481;-84
2022/05/15 04:47:56;;;;;;;12.23;5.50;;;;;;;;;;5013107;28;20074;-83
2022/05/15 04:50:22;;;;;;;14.43;6.72;;;;;;;;;;5012720;28;20030;-82
2022/05/15 04:52:48;;;;;;;12.48;5.53;;;;;;;;;;5012881;28;20037;-79
2022/05/15 04:55:15;;;;;;;10.15;6.65;;;;;;;;;;5013634;28;20072;-79
2022/05/15 04:57:41;;;;;;;11.07;5.63;;;;;;;;;;5012045;28;20022;-79
2022/05/15 05:00:17;;;;;;;9.43;5.68;;;;;;;;;;5012016;28;20516;-79
2022/05/15 05:02:43;;;;;;;11.32;6.60;;;;;;;;;;5011961;28;20026;-79
2022/05/15 05:05:09;;;;;;;8.50;6.07;;;;;;;;;;5011728;28;20030;-79
2022/05/15 05:07:35;;;;;;;7.70;5.30;;;;;;;;;;5013270;28;20050;-78
2022/05/15 05:10:01;;;;;;;16.65;8.57;;;;;;;;;;5011743;28;20113;-79
2022/05/15 05:12:27;;;;;;;22.15;13.63;;;;;;;;;;5012986;28;20470;-78
2022/05/15 05:14:53;;;;;;;14.32;8.15;;;;;;;;;;5014134;28;20022;-79
2022/05/15 05:17:19;;;;;;;13.23;7.43;;;;;;;;;;5014155;28;20068;-78
2022/05/15 05:19:45;;;;;;;10.32;7.28;;;;;;;;;;5012854;28;20044;-78
2022/05/15 05:22:11;;;;;;;8.25;7.20;;;;;;;;;;5012679;28;20097;-79
2022/05/15 05:24:37;;;;;;;11.90;7.18;;;;;;;;;;5012823;28;20026;-78
2022/05/15 05:27:04;;;;;;;11.23;7.60;;;;;;;;;;5012276;28;20409;-80
2022/05/15 05:29:30;;;;;;;9.00;6.57;;;;;;;;;;5011465;28;20068;-79
2022/05/15 05:31:56;;;;;;;12.30;6.50;;;;;;;;;;5010867;28;20026;-79
2022/05/15 05:34:22;;;;;;;9.73;6.63;;;;;;;;;;4997237;28;20424;-80
2022/05/15 05:36:48;;;;;;;19.15;7.95;;;;;;;;;;5012426;28;20458;-78
2022/05/15 05:39:14;;;;;;;10.30;7.00;;;;;;;;;;5011333;28;20370;-80
2022/05/15 05:41:40;;;;;;;12.93;7.20;;;;;;;;;;5011271;28;20042;-79
2022/05/15 05:44:06;;;;;;;12.60;7.03;;;;;;;;;;5012300;28;20097;-79
2022/05/15 05:46:32;;;;;;;10.77;6.75;;;;;;;;;;5011785;28;20022;-79
2022/05/15 05:48:58;;;;;;;10.32;7.07;;;;;;;;;;5011701;28;20014;-79
2022/05/15 05:51:25;;;;;;;11.73;7.22;;;;;;;;;;5011906;28;20049;-79
2022/05/15 05:53:51;;;;;;;8.75;6.50;;;;;;;;;;5011006;28;20026;-78
2022/05/15 05:56:17;;;;;;;12.13;7.07;;;;;;;;;;5012367;28;20024;-78
2022/05/15 05:58:43;;;;;;;11.57;6.63;;;;;;;;;;5010900;28;20026;-78
2022/05/15 06:01:09;;;;;;;11.45;6.30;;;;;;;;;;5011557;28;20076;-77
2022/05/15 06:06:20;;;;;;;14.60;6.70;;;;;;;;;;5009722;28;20409;-78
2022/05/15 06:08:46;;;;;;;12.68;6.57;;;;;;;;;;5012135;28;20596;-78
2022/05/15 06:11:13;;;;;;;7.63;6.00;;;;;;;;;;5010594;28;20096;-78
2022/05/15 06:13:39;;;;;;;12.65;6.30;;;;;;;;;;5010826;28;20037;-79
2022/05/15 06:16:05;;;;;;;10.07;6.57;;;;;;;;;;5005069;28;20508;-79
2022/05/15 06:18:32;;;;;;;14.70;6.40;;;;;;;;;;5013089;28;20029;-77
2022/05/15 06:20:58;;;;;;;7.85;5.85;;;;;;;;;;5010067;28;20135;-78
2022/05/15 06:23:24;;;;;;;8.80;6.47;;;;;;;;;;5010718;28;20026;-80
2022/05/15 06:25:50;;;;;;;16.35;7.15;;;;;;;;;;5010945;28;20485;-81
2022/05/15 06:28:16;;;;;;;9.40;6.80;;;;;;;;;;5010757;28;20068;-79
2022/05/15 06:30:42;;;;;;;10.63;5.93;;;;;;;;;;5011877;28;20469;-80
2022/05/15 06:33:09;;;;;;;10.25;7.07;;;;;;;;;;5012442;28;20091;-80
2022/05/15 06:35:35;;;;;;;9.63;6.25;;;;;;;;;;5010736;28;20022;-80
2022/05/15 06:38:02;;;;;;;18.13;8.07;;;;;;;;;;5011354;28;20031;-79
2022/05/15 06:40:28;;;;;;;13.18;5.63;;;;;;;;;;5016098;28;20045;-81
2022/05/15 06:42:54;;;;;;;11.18;6.28;;;;;;;;;;5016103;28;20044;-80
2022/05/15 06:45:20;;;;;;;10.27;6.13;;;;;;;;;;5016316;28;20057;-81
2022/05/15 06:47:46;;;;;;;7.72;5.57;;;;;;;;;;5015830;28;20033;-78
2022/05/15 06:50:12;;;;;;;6.50;5.38;;;;;;;;;;5015492;28;20025;-78
2022/05/15 06:52:39;;;;;;;12.80;8.40;;;;;;;;;;5014306;28;20026;-78
2022/05/15 06:55:06;;;;;;;17.17;12.40;;;;;;;;;;5015564;28;20018;-78
2022/05/15 06:57:33;;;;;;;25.52;16.35;;;;;;;;;;5015685;28;20402;-77
2022/05/15 07:00:00;;;;;;;50.28;37.55;;;;;;;;;;5015136;28;20042;-77
2022/05/15 07:02:27;;;;;;;15.90;10.27;;;;;;;;;;5015182;28;20073;-77
2022/05/15 07:04:53;;;;;;;10.38;5.88;;;;;;;;;;5013680;28;20057;-77
2022/05/15 07:07:19;;;;;;;8.40;4.00;;;;;;;;;;5030235;28;20136;-78
2022/05/15 07:09:46;;;;;;;19.38;12.45;;;;;;;;;;5015231;28;20034;-77
2022/05/15 07:12:12;;;;;;;14.10;5.25;;;;;;;;;;5015146;28;20025;-78
2022/05/15 07:14:38;;;;;;;11.50;7.85;;;;;;;;;;5015394;28;20029;-78
2022/05/15 07:17:05;;;;;;;15.00;7.60;;;;;;;;;;5015595;28;20018;-77
2022/05/15 07:19:31;;;;;;;23.33;14.40;;;;;;;;;;5016699;28;20109;-78
2022/05/15 07:21:57;;;;;;;13.88;8.55;;;;;;;;;;5015025;28;20461;-77
2022/05/15 07:24:23;;;;;;;7.13;4.30;;;;;;;;;;5030282;28;20026;-78
2022/05/15 07:26:52;;;;;;;8.65;5.35;;;;;;;;;;5030109;28;20116;-77
2022/05/15 07:29:20;;;;;;;28.35;22.02;;;;;;;;;;5030034;28;20018;-77
2022/05/15 07:31:47;;;;;;;57.38;47.28;;;;;;;;;;5027532;28;20469;-76
2022/05/15 07:34:13;;;;;;;53.92;41.65;;;;;;;;;;5014798;28;20022;-78
2022/05/15 07:36:39;;;;;;;58.25;46.80;;;;;;;;;;5014360;28;20041;-76
2022/05/15 07:39:06;;;;;;;11.35;9.27;;;;;;;;;;5014684;28;20022;-79
2022/05/15 07:41:32;;;;;;;26.20;15.13;;;;;;;;;;5014561;28;20034;-77
2022/05/15 07:43:58;;;;;;;19.42;11.20;;;;;;;;;;5013423;28;20054;-78
2022/05/15 07:46:24;;;;;;;8.27;4.55;;;;;;;;;;5013466;28;20381;-78
2022/05/15 07:48:50;;;;;;;5.93;3.60;;;;;;;;;;5013839;28;20068;-77
2022/05/15 07:51:16;;;;;;;7.85;3.97;;;;;;;;;;5014644;28;20026;-77
2022/05/15 07:53:42;;;;;;;11.45;5.07;;;;;;;;;;5014586;28;20022;-77
2022/05/15 07:56:13;;;;;;;9.52;3.25;;;;;;;;;;5013207;28;20535;-77
2022/05/15 07:58:39;;;;;;;5.38;2.97;;;;;;;;;;5013168;28;20386;-78
2022/05/15 08:01:06;;;;;;;6.60;3.47;;;;;;;;;;5014273;28;20500;-75
2022/05/15 08:03:39;;;;;;;7.90;3.70;;;;;;;;;;5012909;28;20116;-76
2022/05/15 08:08:51;;;;;;;6.20;3.15;;;;;;;;;;5013982;28;20037;-75
2022/05/15 08:11:17;;;;;;;5.97;3.35;;;;;;;;;;5014057;28;20022;-77
2022/05/15 08:13:43;;;;;;;8.88;2.88;;;;;;;;;;5013874;28;20428;-77
2022/05/15 08:16:10;;;;;;;10.80;2.90;;;;;;;;;;5012788;28;20026;-76
2022/05/15 08:24:06;;;;;;;6.57;2.78;;;;;;;;;;5013723;28;20104;-76
2022/05/15 08:26:32;;;;;;;5.70;2.35;;;;;;;;;;5013473;28;20018;-76
2022/05/15 08:28:58;;;;;;;6.13;3.15;;;;;;;;;;5013724;28;20018;-79
2022/05/15 08:31:25;;;;;;;8.75;3.90;;;;;;;;;;5013079;28;20101;-79
2022/05/15 08:33:51;;;;;;;7.90;3.25;;;;;;;;;;5012244;28;20130;-79
2022/05/15 08:36:17;;;;;;;11.82;3.75;;;;;;;;;;5013372;28;20093;-79
2022/05/15 08:38:44;;;;;;;7.63;2.55;;;;;;;;;;5013664;28;20469;-79
2022/05/15 08:41:16;;;;;;;3.70;2.78;;;;;;;;;;5012112;28;20065;-79
2022/05/15 08:43:49;;;;;;;8.50;2.47;;;;;;;;;;5012205;28;20440;-77
2022/05/15 08:46:25;;;;;;;8.03;2.57;;;;;;;;;;5013737;28;20256;-79
2022/05/15 08:48:51;;;;;;;5.10;2.35;;;;;;;;;;5013387;28;20038;-79
2022/05/15 08:51:17;;;;;;;4.93;2.20;;;;;;;;;;5013334;28;20028;-79
2022/05/15 08:53:46;;;;;;;6.07;2.67;;;;;;;;;;5013450;28;20022;-79
2022/05/15 08:56:13;;;;;;;5.38;2.72;;;;;;;;;;5012052;28;20048;-80
2022/05/15 08:58:50;;;;;;;8.52;2.83;;;;;;;;;;5013355;28;20584;-79
2022/05/15 09:01:22;;;;;;;8.27;2.15;;;;;;;;;;5011293;28;20421;-79
2022/05/15 09:03:48;;;;;;;7.03;2.65;;;;;;;;;;5013280;28;20026;-80
2022/05/15 09:06:25;;;;;;;5.47;2.40;;;;;;;;;;5013280;28;20041;-79
2022/05/15 09:09:10;;;;;;;4.55;2.58;;;;;;;;;;5011445;28;20061;-80
2022/05/15 09:11:36;;;;;;;5.20;3.03;;;;;;;;;;5011743;28;20033;-78
2022/05/15 09:14:21;;;;;;;4.95;3.03;;;;;;;;;;5006845;28;20026;-78
2022/05/15 09:16:58;;;;;;;7.70;2.55;;;;;;;;;;5007217;28;20017;-77
2022/05/15 09:19:24;;;;;;;7.65;3.28;;;;;;;;;;5012970;28;20018;-78
2022/05/15 09:21:59;;;;;;;12.38;6.05;;;;;;;;;;5009843;28;20026;-77
2022/05/15 09:24:38;;;;;;;7.28;3.03;;;;;;;;;;5007193;28;20029;-77
2022/05/15 09:27:16;;;;;;;5.88;2.45;;;;;;;;;;5007814;28;20014;-78
2022/05/15 09:29:42;;;;;;;5.55;2.88;;;;;;;;;;5007343;28;20381;-77
2022/05/15 09:32:29;;;;;;;4.10;2.22;;;;;;;;;;5009023;28;20022;-78
2022/05/15 09:34:59;;;;;;;5.10;2.80;;;;;;;;;;5011475;28;20014;-78
2022/05/15 09:40:21;;;;;;;5.85;2.78;;;;;;;;;;4998580;28;20045;-78
2022/05/15 09:45:47;;;;;;;4.13;2.58;;;;;;;;;;5000489;28;20049;-78
2022/05/15 09:48:13;;;;;;;4.22;2.42;;;;;;;;;;5008724;28;20022;-79
2022/05/15 09:50:42;;;;;;;7.93;3.70;;;;;;;;;;5007788;28;20469;-79
2022/05/15 09:53:10;;;;;;;18.10;13.40;;;;;;;;;;5006992;28;20054;-88
2022/05/15 09:55:36;;;;;;;6.57;2.80;;;;;;;;;;5002946;28;20496;-86
2022/05/15 09:58:05;;;;;;;7.50;2.88;;;;;;;;;;4999658;28;20515;-84
2022/05/15 10:00:32;;;;;;;7.35;2.65;;;;;;;;;;5005399;28;20037;-86
2022/05/15 10:03:16;;;;;;;10.88;3.67;;;;;;;;;;5002187;28;20034;-81
2022/05/15 10:05:42;;;;;;;9.70;2.65;;;;;;;;;;5015035;28;20061;-83
2022/05/15 10:08:09;;;;;;;6.63;3.03;;;;;;;;;;5000273;28;20077;-86
2022/05/15 10:10:47;;;;;;;4.63;2.58;;;;;;;;;;4998081;28;20354;-85
2022/05/15 10:13:33;;;;;;;8.35;2.85;;;;;;;;;;5008803;28;20053;-82
2022/05/15 10:16:02;;;;;;;6.40;4.55;;;;;;;;;;5011908;28;20026;-87
2022/05/15 10:18:29;;;;;;;6.22;2.40;;;;;;;;;;5003766;28;20379;-85
2022/05/15 10:20:56;;;;;;;7.72;3.22;;;;;;;;;;5018358;28;20493;-80
2022/05/15 10:23:30;;;;;;;5.90;2.92;;;;;;;;;;4999863;28;20068;-79
2022/05/15 10:25:56;;;;;;;4.78;2.75;;;;;;;;;;4996041;28;20023;-78
2022/05/15 10:28:29;;;;;;;6.93;2.58;;;;;;;;;;5006154;28;20029;-80
2022/05/15 10:31:13;;;;;;;4.77;2.43;;;;;;;;;;5009887;28;20390;-78
2022/05/15 10:33:42;;;;;;;4.00;2.50;;;;;;;;;;5007145;28;20279;-83
2022/05/15 10:36:24;;;;;;;6.65;2.70;;;;;;;;;;4994837;28;20027;-78
2022/05/15 10:39:03;;;;;;;6.00;2.50;;;;;;;;;;5010715;28;20018;-80
2022/05/15 10:41:38;;;;;;;9.48;2.47;;;;;;;;;;5006295;28;20038;-78
2022/05/15 10:44:20;;;;;;;5.45;2.15;;;;;;;;;;5001080;28;20038;-78
2022/05/15 10:46:55;;;;;;;11.20;7.80;;;;;;;;;;4995518;28;20505;-77
2022/05/15 10:49:24;;;;;;;13.32;7.43;;;;;;;;;;5000818;28;20023;-78
2022/05/15 10:52:00;;;;;;;5.00;3.08;;;;;;;;;;5003834;28;20034;-79
2022/05/15 10:57:29;;;;;;;2.83;1.95;;;;;;;;;;4999691;28;20083;-78
2022/05/15 11:00:15;;;;;;;4.75;2.70;;;;;;;;;;5005168;28;20419;-83
2022/05/15 11:02:53;;;;;;;7.93;2.85;;;;;;;;;;5007112;28;20053;-80
2022/05/15 11:05:26;;;;;;;12.15;6.05;;;;;;;;;;5010622;28;20018;-77
2022/05/15 11:07:58;;;;;;;4.00;2.40;;;;;;;;;;4999915;28;20433;-77
2022/05/15 11:10:27;;;;;;;5.75;2.30;;;;;;;;;;4995201;28;20110;-77
2022/05/15 11:12:56;;;;;;;4.05;2.47;;;;;;;;;;5006923;28;20022;-83
2022/05/15 11:15:22;;;;;;;6.97;2.70;;;;;;;;;;4999650;28;20073;-81
2022/05/15 11:18:00;;;;;;;4.15;3.00;;;;;;;;;;5003943;28;20022;-82
2022/05/15 11:20:30;;;;;;;5.38;2.70;;;;;;;;;;5003778;28;20105;-83
2022/05/15 11:23:15;;;;;;;7.85;2.70;;;;;;;;;;5009857;28;20704;-82
2022/05/15 11:25:58;;;;;;;3.92;2.20;;;;;;;;;;5006337;28;20033;-83
2022/05/15 11:28:24;;;;;;;8.93;3.33;;;;;;;;;;5003291;28;20033;-82
2022/05/15 11:30:59;;;;;;;4.30;2.55;;;;;;;;;;5012842;28;20030;-81
2022/05/15 11:33:31;;;;;;;4.13;2.67;;;;;;;;;;4998066;28;20034;-80
2022/05/15 11:36:09;;;;;;;6.72;2.50;;;;;;;;;;4996980;28;20022;-79
2022/05/15 11:38:45;;;;;;;7.30;2.78;;;;;;;;;;5005421;28;20053;-81
2022/05/15 11:41:30;;;;;;;5.90;2.40;;;;;;;;;;5014045;28;20034;-82
2022/05/15 11:43:57;;;;;;;8.63;2.40;;;;;;;;;;5005815;28;20072;-81
2022/05/15 11:46:43;;;;;;;3.15;2.22;;;;;;;;;;5001920;28;20524;-83
2022/05/15 11:49:17;;;;;;;8.27;3.13;;;;;;;;;;5007216;28;20026;-83
2022/05/15 11:51:44;;;;;;;6.35;2.75;;;;;;;;;;5008787;28;20057;-78
2022/05/15 11:54:27;;;;;;;4.72;2.30;;;;;;;;;;5010545;28;20104;-79
2022/05/15 11:56:54;;;;;;;2.83;1.98;;;;;;;;;;5012572;28;20030;-77
2022/05/15 11:59:34;;;;;;;3.30;1.85;;;;;;;;;;5003154;28;20026;-77
2022/05/15 12:02:11;;;;;;;6.18;2.60;;;;;;;;;;4998660;28;20034;-77
2022/05/15 12:04:37;;;;;;;4.80;2.88;;;;;;;;;;4991859;28;20485;-77
2022/05/15 12:07:03;;;;;;;8.18;2.92;;;;;;;;;;4998673;28;20093;-79
2022/05/15 12:09:32;;;;;;;5.60;2.78;;;;;;;;;;5013035;28;20112;-78
2022/05/15 12:12:18;;;;;;;10.93;2.88;;;;;;;;;;5028850;28;20029;-79
2022/05/15 12:15:03;;;;;;;3.30;2.33;;;;;;;;;;5006128;28;20045;-78
2022/05/15 12:17:30;;;;;;;7.28;2.33;;;;;;;;;;5013755;28;20024;-80
2022/05/15 12:20:22;;;;;;;4.72;2.08;;;;;;;;;;5012765;28;20062;-79
2022/05/15 12:22:53;;;;;;;6.00;2.38;;;;;;;;;;5011672;28;20057;-80
2022/05/15 12:25:25;;;;;;;6.05;2.63;;;;;;;;;;5011677;28;20029;-79
2022/05/15 12:30:48;;;;;;;2.97;1.65;;;;;;;;;;5012200;28;20104;-77
2022/05/15 12:33:14;;;;;;;5.75;2.70;;;;;;;;;;5012264;28;20081;-77
2022/05/15 12:35:43;;;;;;;4.18;2.08;;;;;;;;;;5011390;28;20026;-88
2022/05/15 12:38:13;;;;;;;3.88;2.13;;;;;;;;;;5011711;28;20033;-80
2022/05/15 12:40:57;;;;;;;9.13;2.42;;;;;;;;;;4992915;28;20042;-81
2022/05/15 12:43:28;;;;;;;4.40;1.92;;;;;;;;;;4993939;28;20492;-77
2022/05/15 12:45:54;;;;;;;5.53;2.35;;;;;;;;;;4994119;28;20026;-81
2022/05/15 12:48:21;;;;;;;9.30;2.10;;;;;;;;;;4993953;28;20014;-81
2022/05/15 12:50:48;;;;;;;6.45;2.50;;;;;;;;;;4992442;28;20464;-77
2022/05/15 12:53:19;;;;;;;10.88;3.17;;;;;;;;;;4992475;28;20023;-78
2022/05/15 12:55:45;;;;;;;4.80;2.05;;;;;;;;;;4993431;28;20409;-80
2022/05/15 12:58:11;;;;;;;6.68;2.28;;;;;;;;;;4992907;28;20029;-78
2022/05/15 13:00:38;;;;;;;5.88;2.78;;;;;;;;;;4993644;28;20037;-77
2022/05/15 13:03:09;;;;;;;3.05;2.05;;;;;;;;;;5009942;28;20026;-79
2022/05/15 13:05:38;;;;;;;4.40;1.55;;;;;;;;;;5013732;28;20060;-78
2022/05/15 13:08:06;;;;;;;4.13;1.73;;;;;;;;;;5011774;28;20022;-79
2022/05/15 13:10:33;;;;;;;3.38;1.55;;;;;;;;;;5012384;28;20026;-80
2022/05/15 13:12:59;;;;;;;3.17;1.73;;;;;;;;;;5011656;28;20080;-81
2022/05/15 13:15:27;;;;;;;6.90;3.92;;;;;;;;;;5011728;28;20129;-78
2022/05/15 13:17:55;;;;;;;8.15;4.60;;;;;;;;;;5009756;28;20018;-77
2022/05/15 13:20:22;;;;;;;8.10;5.43;;;;;;;;;;5012139;28;20029;-78
2022/05/15 13:22:52;;;;;;;10.20;7.50;;;;;;;;;;5010805;28;20378;-78
2022/05/15 13:25:36;;;;;;;12.80;6.05;;;;;;;;;;5014558;28;20488;-78
2022/05/15 13:28:03;;;;;;;7.82;2.55;;;;;;;;;;5011484;28;20026;-79
2022/05/15 13:30:31;;;;;;;7.65;5.30;;;;;;;;;;5011577;28;20029;-79
2022/05/15 13:32:59;;;;;;;14.48;9.02;;;;;;;;;;5012870;28;20022;-78
2022/05/15 13:35:28;;;;;;;10.50;7.05;;;;;;;;;;5012503;28;20022;-78
2022/05/15 13:37:55;;;;;;;23.48;20.98;;;;;;;;;;5007917;28;20377;-79
2022/05/15 13:43:18;;;;;;;4.50;1.98;;;;;;;;;;5012640;28;20079;-78
2022/05/15 13:45:51;;;;;;;12.25;4.07;;;;;;;;;;5012271;28;20029;-78
2022/05/15 13:48:17;;;;;;;6.95;4.85;;;;;;;;;;5012072;28;20107;-79
2022/05/15 13:50:43;;;;;;;4.10;1.80;;;;;;;;;;5012120;28;20022;-78
2022/05/15 13:53:18;;;;;;;11.40;4.50;;;;;;;;;;5011175;28;20021;-80
2022/05/15 13:55:44;;;;;;;10.98;7.20;;;;;;;;;;5012469;28;20022;-78
2022/05/15 13:58:11;;;;;;;24.02;18.73;;;;;;;;;;5011034;28;20465;-79
2022/05/15 14:00:39;;;;;;;21.13;15.38;;;;;;;;;;5011025;28;20421;-78
2022/05/15 14:03:06;;;;;;;25.10;22.10;;;;;;;;;;5012426;28;20511;-77
2022/05/15 14:05:33;;;;;;;10.52;7.07;;;;;;;;;;5012105;28;20026;-78
2022/05/15 14:08:10;;;;;;;13.05;6.22;;;;;;;;;;5012818;28;20030;-80
2022/05/15 14:10:38;;;;;;;4.32;2.13;;;;;;;;;;5010499;28;20121;-79
2022/05/15 14:13:04;;;;;;;3.90;2.38;;;;;;;;;;5012708;28;20109;-79
2022/05/15 14:15:33;;;;;;;7.28;2.67;;;;;;;;;;5010449;28;20033;-78
2022/05/15 14:18:05;;;;;;;13.90;9.65;;;;;;;;;;5010881;28;20033;-78
2022/05/15 14:20:34;;;;;;;14.55;10.20;;;;;;;;;;5010731;28;20508;-79
2022/05/15 14:23:00;;;;;;;6.95;4.35;;;;;;;;;;5012139;28;20041;-78
2022/05/15 14:25:27;;;;;;;12.68;7.10;;;;;;;;;;5007329;28;20025;-79
2022/05/15 14:27:53;;;;;;;12.23;8.35;;;;;;;;;;4999547;28;20025;-79
2022/05/15 14:30:19;;;;;;;8.98;4.95;;;;;;;;;;5001414;28;20093;-79
2022/05/15 14:32:56;;;;;;;6.50;4.05;;;;;;;;;;5010738;28;20072;-80
2022/05/15 14:35:26;;;;;;;5.90;3.45;;;;;;;;;;5010627;28;20117;-80
2022/05/15 14:37:52;;;;;;;14.57;11.50;;;;;;;;;;5010678;28;20347;-80
2022/05/15 14:40:18;;;;;;;11.98;9.05;;;;;;;;;;5009875;28;20029;-80
2022/05/15 14:42:44;;;;;;;5.07;2.17;;;;;;;;;;5010439;28;20030;-80
2022/05/15 14:45:17;;;;;;;20.55;13.80;;;;;;;;;;5010558;28;20033;-80
2022/05/15 14:47:45;;;;;;;8.15;5.13;;;;;;;;;;5010573;28;20028;-81
2022/05/15 14:50:11;;;;;;;7.85;3.35;;;;;;;;;;5010890;28;20400;-81
2022/05/15 14:52:38;;;;;;;4.90;2.17;;;;;;;;;;5010867;28;20029;-80
2022/05/15 14:55:05;;;;;;;4.57;2.13;;;;;;;;;;5009940;28;20033;-79
2022/05/15 14:57:31;;;;;;;6.65;3.95;;;;;;;;;;5010601;28;20068;-81
2022/05/15 15:00:01;;;;;;;6.05;4.47;;;;;;;;;;5012674;28;20033;-84
2022/05/15 15:02:28;;;;;;;18.10;12.93;;;;;;;;;;5015954;28;20018;-81